createdAt,value
2019-05-07T00:01:02.825Z,73.80
2019-05-07T00:03:32.819Z,74.00
2019-05-07T00:06:02.774Z,73.90
2019-05-07T00:08:32.339Z,74.30
2019-05-07T00:11:02.423Z,74.90
2019-05-07T00:13:33.294Z,75.40
2019-05-07T00:16:02.684Z,75.70
2019-05-07T00:18:32.310Z,76.40
2019-05-07T00:21:03.533Z,76.50
2019-05-07T00:23:32.670Z,76.00
2019-05-07T00:26:02.525Z,76.70
2019-05-07T00:28:32.430Z,78.00
2019-05-07T00:31:02.932Z,78.00
2019-05-07T00:33:33.353Z,78.00
2019-05-07T00:36:23.079Z,78.10
2019-05-07T00:38:57.343Z,78.50
2019-05-07T00:41:33.582Z,79.10
2019-05-07T00:44:03.278Z,79.50
2019-05-07T00:46:32.923Z,79.50
2019-05-07T00:49:02.454Z,80.40
2019-05-07T00:51:33.558Z,80.90
2019-05-07T00:54:03.923Z,81.00
2019-05-07T00:56:33.324Z,81.50
2019-05-07T00:59:02.568Z,81.70
2019-05-07T01:01:32.411Z,81.90
2019-05-07T01:04:02.622Z,82.20
2019-05-07T01:06:33.061Z,82.30
2019-05-07T01:09:03.449Z,82.30
2019-05-07T01:11:33.503Z,82.80
2019-05-07T01:14:03.081Z,83.00
2019-05-07T01:16:32.937Z,83.70
2019-05-07T01:19:02.333Z,83.80
2019-05-07T01:21:32.437Z,84.20
2019-05-07T01:24:03.856Z,84.70
2019-05-07T01:26:33.318Z,84.50
2019-05-07T01:29:03.326Z,84.90
2019-05-07T01:31:46.060Z,85.00
2019-05-07T01:34:36.904Z,83.70
2019-05-07T01:37:06.009Z,84.30
2019-05-07T01:39:35.124Z,85.50
2019-05-07T01:42:04.197Z,86.20
2019-05-07T01:44:33.293Z,86.30
2019-05-07T01:47:02.671Z,85.80
2019-05-07T01:49:33.063Z,86.40
2019-05-07T01:52:02.864Z,86.80
2019-05-07T01:54:33.269Z,87.40
2019-05-07T01:57:02.987Z,87.40
2019-05-07T01:59:32.433Z,87.30
2019-05-07T02:02:07.969Z,87.00
2019-05-07T02:05:03.198Z,87.70
2019-05-07T02:07:36.833Z,88.40
2019-05-07T02:10:25.694Z,89.10
2019-05-07T02:12:54.792Z,89.70
2019-05-07T02:15:23.992Z,89.50
2019-05-07T02:17:53.083Z,89.60
2019-05-07T02:20:22.626Z,89.90
2019-05-07T02:22:53.239Z,89.70
2019-05-07T02:25:22.474Z,89.90
2019-05-07T02:27:52.811Z,89.90
2019-05-07T02:30:23.906Z,90.10
2019-05-07T02:32:54.002Z,90.20
2019-05-07T02:35:25.428Z,90.10
2019-05-07T02:38:17.760Z,90.40
2019-05-07T02:41:06.013Z,90.20
2019-05-07T02:43:35.104Z,91.00
2019-05-07T02:46:31.081Z,91.10
2019-05-07T02:49:03.684Z,91.00
2019-05-07T02:51:38.529Z,91.60
2019-05-07T02:54:15.358Z,91.70
2019-05-07T02:56:44.502Z,90.80
2019-05-07T02:59:13.895Z,91.40
2019-05-07T03:01:43.589Z,91.70
2019-05-07T03:04:13.088Z,92.00
2019-05-07T03:06:44.327Z,92.30
2019-05-07T03:09:14.381Z,91.80
2019-05-07T03:11:44.003Z,92.20
2019-05-07T03:14:13.999Z,92.70
2019-05-07T03:16:48.891Z,93.00
2019-05-07T03:19:14.857Z,92.40
2019-05-07T03:21:56.389Z,91.40
2019-05-07T03:24:43.833Z,91.20
2019-05-07T03:27:14.287Z,91.60
2019-05-07T03:29:47.647Z,92.10
2019-05-07T03:32:39.558Z,91.60
2019-05-07T03:35:37.242Z,91.90
2019-05-07T03:38:04.006Z,92.20
2019-05-07T03:40:34.279Z,92.90
2019-05-07T03:43:05.951Z,92.70
2019-05-07T03:45:54.031Z,92.40
2019-05-07T03:48:25.223Z,92.50
2019-05-07T03:50:54.317Z,93.30
2019-05-07T03:53:23.638Z,94.00
2019-05-07T03:55:54.006Z,94.50
2019-05-07T03:58:23.895Z,94.90
2019-05-07T04:00:53.782Z,94.70
2019-05-07T04:03:24.275Z,94.40
2019-05-07T04:05:54.037Z,95.00
2019-05-07T04:08:23.842Z,95.50
2019-05-07T04:10:54.026Z,95.40
2019-05-07T04:13:24.222Z,95.70
2019-05-07T04:15:53.722Z,95.60
2019-05-07T04:21:34.464Z,95.20
2019-05-07T04:24:33.253Z,95.10
2019-05-07T04:27:14.856Z,95.10
2019-05-07T04:29:43.964Z,95.90
2019-05-07T04:32:14.494Z,96.10
2019-05-07T04:35:03.967Z,96.20
2019-05-07T04:37:33.468Z,95.70
2019-05-07T04:40:03.373Z,96.30
2019-05-07T04:42:33.312Z,97.20
2019-05-07T04:45:04.218Z,97.30
2019-05-07T04:47:42.623Z,97.50
2019-05-07T04:50:05.201Z,97.60
2019-05-07T04:52:36.381Z,97.80
2019-05-07T04:55:06.580Z,98.10
2019-05-07T04:57:35.902Z,97.90
2019-05-07T05:00:07.976Z,98.10
2019-05-07T05:02:58.187Z,98.30
2019-05-07T05:05:27.453Z,98.50
2019-05-07T05:07:56.588Z,97.90
2019-05-07T05:10:25.669Z,98.20
2019-05-07T05:12:54.691Z,97.90
2019-05-07T05:15:23.798Z,97.70
2019-05-07T05:17:54.045Z,97.90
2019-05-07T05:20:31.060Z,97.70
2019-05-07T05:23:17.847Z,97.90
2019-05-07T05:25:46.940Z,98.50
2019-05-07T05:28:16.231Z,98.80
2019-05-07T05:30:49.805Z,99.20
2019-05-07T05:33:18.907Z,99.30
2019-05-07T05:35:48.148Z,99.30
2019-05-07T05:38:17.222Z,99.50
2019-05-07T05:40:46.346Z,99.70
2019-05-07T05:43:28.218Z,99.50
2019-05-07T05:45:59.633Z,99.70
2019-05-07T05:48:28.861Z,99.50
2019-05-07T05:51:07.697Z,99.60
2019-05-07T05:53:52.349Z,99.90
2019-05-07T05:56:42.562Z,99.90
2019-05-07T05:59:25.288Z,99.90
2019-05-07T06:02:15.663Z,99.90
2019-05-07T06:05:15.840Z,99.90
2019-05-07T06:08:03.936Z,99.90
2019-05-07T06:10:55.111Z,99.90
2019-05-07T06:13:32.347Z,99.90
2019-05-07T06:16:14.405Z,99.90
2019-05-07T06:18:56.015Z,99.90
2019-05-07T06:21:44.199Z,99.90
2019-05-07T06:24:15.633Z,99.90
2019-05-07T06:26:44.759Z,99.90
2019-05-07T06:29:13.841Z,99.90
2019-05-07T06:31:44.603Z,99.90
2019-05-07T06:34:13.697Z,99.90
2019-05-07T06:36:42.997Z,99.90
2019-05-07T06:39:18.949Z,99.90
2019-05-07T06:42:06.005Z,99.90
2019-05-07T06:44:35.354Z,99.90
2019-05-07T06:47:04.470Z,99.90
2019-05-07T06:49:33.559Z,99.90
2019-05-07T06:52:03.130Z,99.90
2019-05-07T06:54:32.286Z,99.70
2019-05-07T06:57:02.083Z,99.40
2019-05-07T06:59:42.198Z,99.40
2019-05-07T07:02:29.063Z,99.20
2019-05-07T07:05:04.765Z,98.60
2019-05-07T07:07:52.649Z,98.10
2019-05-07T07:10:28.670Z,97.90
2019-05-07T07:12:57.775Z,97.30
2019-05-07T07:15:26.863Z,96.90
2019-05-07T07:17:55.989Z,96.80
2019-05-07T07:20:25.059Z,96.50
2019-05-07T07:22:54.155Z,96.60
2019-05-07T07:25:23.322Z,96.40
2019-05-07T07:27:52.411Z,96.30
2019-05-07T07:30:43.399Z,96.00
2019-05-07T07:33:13.246Z,95.70
2019-05-07T07:35:42.884Z,95.30
2019-05-07T07:38:32.687Z,95.00
2019-05-07T07:41:28.800Z,94.60
2019-05-07T07:43:57.869Z,94.10
2019-05-07T07:46:27.081Z,93.60
2019-05-07T07:49:06.657Z,93.30
2019-05-07T07:51:38.113Z,92.90
2019-05-07T07:53:57.922Z,92.60
2019-05-07T07:56:53.276Z,92.10
2019-05-07T07:59:42.213Z,91.90
2019-05-07T08:02:19.554Z,91.60
2019-05-07T08:04:48.643Z,91.10
2019-05-07T08:07:17.769Z,90.90
2019-05-07T08:09:46.890Z,90.80
2019-05-07T08:12:16.008Z,90.50
2019-05-07T08:14:45.081Z,90.50
2019-05-07T08:17:14.223Z,90.30
2019-05-07T08:19:43.342Z,90.10
2019-05-07T08:22:12.682Z,89.30
2019-05-07T08:24:42.606Z,88.90
2019-05-07T08:27:12.809Z,88.10
2019-05-07T08:29:43.225Z,88.00
2019-05-07T08:32:32.659Z,87.50
2019-05-07T08:35:27.070Z,86.90
2019-05-07T08:37:56.283Z,86.20
2019-05-07T08:40:25.483Z,85.90
2019-05-07T08:42:55.105Z,85.30
2019-05-07T08:45:43.176Z,84.40
2019-05-07T08:48:25.964Z,83.70
2019-05-07T08:50:55.139Z,82.90
2019-05-07T08:53:24.283Z,81.50
2019-05-07T08:55:53.410Z,80.60
2019-05-07T08:58:23.091Z,80.80
2019-05-07T09:00:52.424Z,80.60
2019-05-07T09:03:39.669Z,78.90
2019-05-07T09:06:08.765Z,78.40
2019-05-07T09:08:37.883Z,78.00
2019-05-07T09:11:06.977Z,77.90
2019-05-07T09:13:36.087Z,77.50
2019-05-07T09:16:05.200Z,76.90
2019-05-07T09:18:34.317Z,76.10
2019-05-07T09:21:03.407Z,76.10
2019-05-07T09:23:32.588Z,75.90
2019-05-07T09:26:02.764Z,75.90
2019-05-07T09:28:54.168Z,75.60
2019-05-07T09:31:32.982Z,75.20
2019-05-07T09:34:02.681Z,74.80
2019-05-07T09:36:45.089Z,74.50
2019-05-07T09:39:14.200Z,73.50
2019-05-07T09:41:43.321Z,72.20
2019-05-07T09:44:12.478Z,70.80
2019-05-07T09:46:43.060Z,68.90
2019-05-07T09:49:12.700Z,69.40
2019-05-07T09:51:42.688Z,68.10
2019-05-07T09:54:12.705Z,66.70
2019-05-07T09:56:42.304Z,65.90
2019-05-07T09:59:12.546Z,65.20
2019-05-07T10:01:42.241Z,66.20
2019-05-07T10:04:11.342Z,65.20
2019-05-07T10:06:42.361Z,65.70
2019-05-07T10:09:12.027Z,64.50
2019-05-07T10:12:12.438Z,64.00
2019-05-07T10:14:42.057Z,63.50
2019-05-07T10:17:23.552Z,64.10
2019-05-07T10:19:52.693Z,62.80
2019-05-07T10:22:22.760Z,62.40
2019-05-07T10:24:52.387Z,61.90
2019-05-07T10:27:22.189Z,62.00
2019-05-07T10:29:53.017Z,62.60
2019-05-07T10:32:22.286Z,63.50
2019-05-07T10:34:52.558Z,62.50
2019-05-07T10:37:21.986Z,62.10
2019-05-07T10:39:51.956Z,61.60
2019-05-07T10:42:22.721Z,62.00
2019-05-07T10:45:06.318Z,62.20
2019-05-07T10:47:54.453Z,63.30
2019-05-07T10:50:35.264Z,64.00
2019-05-07T10:52:56.518Z,63.50
2019-05-07T10:55:26.747Z,62.80
2019-05-07T10:57:55.933Z,61.70
2019-05-07T11:00:26.151Z,61.40
2019-05-07T11:02:55.246Z,60.70
2019-05-07T11:05:24.376Z,60.00
2019-05-07T11:07:53.955Z,61.20
2019-05-07T11:10:23.251Z,60.90
2019-05-07T11:12:52.395Z,60.80
2019-05-07T11:15:22.100Z,60.00
2019-05-07T11:18:13.643Z,61.00
2019-05-07T11:20:49.768Z,60.60
2019-05-07T11:23:13.677Z,60.10
2019-05-07T11:25:42.798Z,60.80
2019-05-07T11:28:12.475Z,60.10
2019-05-07T11:30:42.577Z,60.50
2019-05-07T11:33:12.871Z,59.60
2019-05-07T11:35:42.524Z,59.10
2019-05-07T11:38:21.099Z,58.50
2019-05-07T11:40:42.932Z,58.20
2019-05-07T11:43:37.038Z,58.20
2019-05-07T11:46:16.112Z,57.70
2019-05-07T11:48:51.600Z,58.10
2019-05-07T11:51:27.080Z,58.80
2019-05-07T11:54:12.346Z,59.20
2019-05-07T11:56:42.225Z,59.00
2019-05-07T11:59:13.439Z,57.20
2019-05-07T12:01:47.813Z,58.20
2019-05-07T12:04:16.652Z,58.80
2019-05-07T12:06:45.741Z,58.40
2019-05-07T12:09:14.844Z,58.10
2019-05-07T12:11:43.960Z,57.80
2019-05-07T12:14:13.141Z,57.70
2019-05-07T12:16:42.703Z,57.50
2019-05-07T12:19:13.083Z,57.80
2019-05-07T12:21:42.754Z,57.10
2019-05-07T12:24:12.883Z,56.80
2019-05-07T12:26:43.698Z,57.20
2019-05-07T12:29:12.849Z,56.50
2019-05-07T12:32:02.678Z,55.60
2019-05-07T12:34:44.861Z,56.20
2019-05-07T12:37:13.975Z,56.00
2019-05-07T12:39:43.071Z,55.80
2019-05-07T12:42:12.363Z,56.20
2019-05-07T12:44:42.532Z,57.20
2019-05-07T12:47:12.186Z,58.70
2019-05-07T12:49:42.927Z,58.60
2019-05-07T12:52:22.753Z,58.70
2019-05-07T12:55:11.784Z,58.70
2019-05-07T12:57:42.083Z,58.10
2019-05-07T13:00:32.183Z,58.00
2019-05-07T13:03:22.739Z,57.90
2019-05-07T13:05:52.151Z,57.50
2019-05-07T13:08:23.043Z,56.40
2019-05-07T13:10:52.447Z,56.20
2019-05-07T13:13:21.571Z,54.60
2019-05-07T13:15:51.810Z,51.70
2019-05-07T13:18:22.659Z,53.20
2019-05-07T13:20:52.080Z,52.30
2019-05-07T13:23:22.522Z,52.50
2019-05-07T13:25:52.363Z,51.90
2019-05-07T13:28:21.519Z,51.90
2019-05-07T13:30:52.484Z,52.80
2019-05-07T13:33:22.882Z,53.70
2019-05-07T13:35:52.353Z,54.00
2019-05-07T13:38:47.579Z,54.60
2019-05-07T13:41:34.330Z,55.40
2019-05-07T13:44:25.879Z,55.40
2019-05-07T13:47:14.229Z,56.20
2019-05-07T13:49:44.115Z,56.70
2019-05-07T13:52:13.414Z,57.00
2019-05-07T13:54:42.625Z,56.20
2019-05-07T13:57:12.109Z,55.80
2019-05-07T13:59:42.430Z,53.60
2019-05-07T14:02:15.391Z,53.40
2019-05-07T14:04:43.823Z,52.60
2019-05-07T14:07:13.003Z,53.70
2019-05-07T14:09:42.167Z,54.60
2019-05-07T14:12:12.371Z,54.80
2019-05-07T14:14:42.639Z,54.50
2019-05-07T14:17:12.692Z,54.70
2019-05-07T14:19:42.375Z,54.60
2019-05-07T14:22:16.330Z,55.00
2019-05-07T14:24:42.646Z,54.70
2019-05-07T14:27:11.766Z,54.70
2019-05-07T14:29:42.479Z,54.30
2019-05-07T14:32:23.849Z,54.00
2019-05-07T14:35:12.306Z,53.80
2019-05-07T14:37:48.213Z,54.10
2019-05-07T14:40:17.457Z,54.10
2019-05-07T14:42:52.534Z,53.60
2019-05-07T14:45:23.845Z,54.00
2019-05-07T14:47:52.954Z,53.40
2019-05-07T14:50:22.559Z,51.80
2019-05-07T14:52:54.928Z,50.50
2019-05-07T14:55:22.801Z,51.00
2019-05-07T14:57:52.461Z,51.50
2019-05-07T15:00:22.595Z,51.60
2019-05-07T15:02:52.519Z,51.20
2019-05-07T15:05:22.390Z,50.50
2019-05-07T15:07:51.823Z,51.00
2019-05-07T15:10:22.193Z,50.80
2019-05-07T15:12:52.204Z,50.90
2019-05-07T15:15:22.063Z,50.70
2019-05-07T15:17:59.606Z,50.80
2019-05-07T15:20:28.814Z,50.20
2019-05-07T15:23:15.994Z,51.10
2019-05-07T15:25:45.182Z,50.60
2019-05-07T15:28:14.294Z,50.20
2019-05-07T15:30:53.555Z,50.30
2019-05-07T15:33:22.894Z,50.90
2019-05-07T15:35:52.260Z,51.10
2019-05-07T15:38:21.738Z,50.00
2019-05-07T15:40:51.896Z,50.50
2019-05-07T15:43:21.159Z,49.30
2019-05-07T15:45:52.323Z,49.50
2019-05-07T15:48:21.986Z,49.80
2019-05-07T15:50:52.006Z,50.40
2019-05-07T15:53:32.371Z,50.50
2019-05-07T15:56:01.890Z,49.30
2019-05-07T15:58:31.393Z,49.70
2019-05-07T16:01:02.197Z,50.00
2019-05-07T16:03:38.534Z,49.80
2019-05-07T16:06:07.762Z,49.30
2019-05-07T16:08:42.708Z,48.90
2019-05-07T16:11:12.568Z,49.50
2019-05-07T16:13:45.886Z,48.60
2019-05-07T16:16:15.048Z,48.50
2019-05-07T16:19:06.130Z,48.20
2019-05-07T16:21:35.245Z,48.80
2019-05-07T16:24:04.347Z,48.50
2019-05-07T16:26:33.484Z,49.10
2019-05-07T16:29:04.574Z,48.60
2019-05-07T16:31:33.446Z,48.60
2019-05-07T16:34:02.675Z,48.20
2019-05-07T16:36:32.901Z,48.10
2019-05-07T16:39:03.499Z,46.30
2019-05-07T16:41:32.975Z,47.20
2019-05-07T16:44:02.858Z,47.60
2019-05-07T16:46:32.165Z,49.10
2019-05-07T16:49:02.279Z,48.60
2019-05-07T16:51:33.024Z,46.10
2019-05-07T16:54:03.369Z,45.50
2019-05-07T16:56:33.324Z,46.00
2019-05-07T16:59:07.475Z,46.30
2019-05-07T17:01:35.870Z,45.80
2019-05-07T17:04:05.737Z,45.50
2019-05-07T17:06:34.862Z,46.20
2019-05-07T17:09:13.246Z,47.20
2019-05-07T17:11:43.641Z,47.00
2019-05-07T17:14:13.238Z,48.00
2019-05-07T17:16:42.434Z,46.90
2019-05-07T17:19:13.112Z,48.10
2019-05-07T17:21:43.148Z,48.20
2019-05-07T17:24:12.556Z,48.30
2019-05-07T17:26:42.301Z,48.30
2019-05-07T17:29:12.054Z,48.20
2019-05-07T17:31:42.443Z,48.20
2019-05-07T17:34:12.016Z,48.30
2019-05-07T17:36:42.150Z,47.90
2019-05-07T17:39:12.130Z,48.10
2019-05-07T17:41:42.899Z,46.50
2019-05-07T17:44:12.354Z,46.20
2019-05-07T17:46:42.904Z,46.40
2019-05-07T17:49:12.306Z,46.60
2019-05-07T17:51:43.958Z,46.30
2019-05-07T17:54:13.790Z,45.30
2019-05-07T17:56:43.478Z,44.40
2019-05-07T17:59:12.618Z,44.10
2019-05-07T18:01:54.296Z,44.00
2019-05-07T18:04:23.604Z,43.50
2019-05-07T18:06:52.770Z,43.70
2019-05-07T18:09:22.538Z,43.80
2019-05-07T18:11:52.333Z,43.60
2019-05-07T18:14:22.886Z,43.70
2019-05-07T18:17:14.512Z,43.90
2019-05-07T18:19:44.648Z,44.00
2019-05-07T18:22:13.828Z,44.30
2019-05-07T18:24:42.969Z,44.30
2019-05-07T18:27:18.301Z,44.80
2019-05-07T18:29:47.415Z,45.00
2019-05-07T18:32:16.586Z,45.40
2019-05-07T18:34:45.735Z,45.60
2019-05-07T18:37:14.926Z,46.30
2019-05-07T18:39:44.066Z,46.20
2019-05-07T18:42:13.260Z,46.70
2019-05-07T18:44:42.386Z,46.70
2019-05-07T18:47:12.865Z,47.10
2019-05-07T18:49:44.701Z,47.10
2019-05-07T18:52:13.021Z,47.50
2019-05-07T18:54:42.764Z,47.80
2019-05-07T18:57:12.154Z,47.90
2019-05-07T18:59:42.290Z,48.20
2019-05-07T19:02:11.628Z,48.70
2019-05-07T19:04:42.238Z,48.70
2019-05-07T19:07:13.212Z,49.70
2019-05-07T19:09:42.458Z,49.40
2019-05-07T19:12:13.526Z,49.40
2019-05-07T19:14:42.786Z,49.40
2019-05-07T19:17:12.256Z,49.60
2019-05-07T19:19:41.929Z,49.10
2019-05-07T19:22:11.145Z,49.10
2019-05-07T19:24:45.300Z,49.40
2019-05-07T19:27:12.600Z,50.00
2019-05-07T19:29:43.454Z,49.80
2019-05-07T19:32:14.322Z,49.80
2019-05-07T19:34:43.416Z,49.50
2019-05-07T19:37:12.610Z,50.20
2019-05-07T19:39:43.056Z,49.90
2019-05-07T19:42:12.221Z,50.00
2019-05-07T19:44:42.322Z,50.30
2019-05-07T19:47:12.673Z,50.20
2019-05-07T19:49:42.044Z,50.40
2019-05-07T19:52:12.465Z,50.30
2019-05-07T19:54:44.334Z,50.70
2019-05-07T19:57:16.255Z,50.50
2019-05-07T19:59:45.340Z,50.50
2019-05-07T20:02:17.738Z,50.40
2019-05-07T20:04:46.834Z,50.50
2019-05-07T20:07:15.986Z,51.20
2019-05-07T20:09:45.105Z,50.40
2019-05-07T20:12:14.215Z,50.50
2019-05-07T20:14:43.355Z,50.30
2019-05-07T20:17:12.794Z,50.30
2019-05-07T20:19:41.901Z,50.50
2019-05-07T20:22:12.793Z,50.80
2019-05-07T20:24:41.880Z,50.50
2019-05-07T20:27:12.451Z,51.00
2019-05-07T20:29:42.760Z,51.20
2019-05-07T20:32:12.010Z,51.10
2019-05-07T20:38:10.389Z,51.40
2019-05-07T20:40:39.469Z,52.70
2019-05-07T20:43:08.728Z,52.40
2019-05-07T20:45:37.860Z,51.70
2019-05-07T20:48:07.008Z,52.20
2019-05-07T20:50:36.154Z,53.00
2019-05-07T20:53:05.469Z,53.30
2019-05-07T20:56:02.737Z,53.40
2019-05-07T20:58:32.858Z,53.60
2019-05-07T21:01:02.909Z,53.50
2019-05-07T21:03:32.550Z,53.80
2019-05-07T21:06:02.264Z,53.00
2019-05-07T21:08:32.179Z,54.10
2019-05-07T21:11:02.532Z,53.70
2019-05-07T21:13:34.870Z,53.50
2019-05-07T21:16:03.440Z,53.30
2019-05-07T21:18:32.856Z,52.90
2019-05-07T21:21:02.276Z,53.50
2019-05-07T21:23:32.556Z,53.70
2019-05-07T21:26:02.282Z,53.70
2019-05-07T21:28:32.328Z,54.30
2019-05-07T21:31:02.777Z,54.70
2019-05-07T21:33:32.340Z,54.90
2019-05-07T21:36:02.851Z,55.00
2019-05-07T21:38:32.981Z,54.30
2019-05-07T21:41:02.324Z,54.90
2019-05-07T21:43:32.662Z,54.60
2019-05-07T21:46:02.485Z,54.40
2019-05-07T21:48:32.911Z,54.20
2019-05-07T21:51:02.537Z,54.20
2019-05-07T21:53:37.271Z,53.80
2019-05-07T21:56:23.553Z,54.60
2019-05-07T21:58:56.047Z,53.90
2019-05-07T22:01:45.683Z,54.80
2019-05-07T22:04:14.803Z,54.80
2019-05-07T22:06:45.585Z,55.40
2019-05-07T22:09:16.932Z,55.70
2019-05-07T22:11:46.023Z,55.60
2019-05-07T22:14:15.114Z,56.70
2019-05-07T22:16:44.191Z,56.90
2019-05-07T22:19:42.784Z,57.40
2019-05-07T22:22:12.445Z,57.40
2019-05-07T22:24:42.559Z,57.00
2019-05-07T22:27:12.862Z,57.80
2019-05-07T22:29:42.462Z,57.90
2019-05-07T22:32:23.578Z,58.30
2019-05-07T22:35:00.003Z,58.20
2019-05-07T22:37:29.122Z,58.20
2019-05-07T22:39:58.234Z,58.30
2019-05-07T22:42:27.336Z,57.70
2019-05-07T22:44:56.414Z,58.10
2019-05-07T22:47:25.588Z,58.30
2019-05-07T22:49:54.682Z,58.10
2019-05-07T22:52:23.785Z,57.80
2019-05-07T22:54:52.876Z,58.70
2019-05-07T22:57:29.294Z,58.60
2019-05-07T22:59:58.360Z,58.50
2019-05-07T23:02:27.520Z,58.90
2019-05-07T23:04:56.636Z,58.90
2019-05-07T23:07:25.785Z,59.10
2019-05-07T23:09:55.013Z,59.40
2019-05-07T23:12:24.160Z,59.30
2019-05-07T23:14:53.744Z,59.70
2019-05-07T23:17:23.017Z,59.70
2019-05-07T23:19:54.943Z,60.10
2019-05-07T23:22:22.931Z,59.60
2019-05-07T23:24:52.197Z,59.70
2019-05-07T23:27:22.476Z,59.60
2019-05-07T23:29:52.985Z,59.50
2019-05-07T23:32:22.301Z,59.10
2019-05-07T23:34:52.704Z,59.40
2019-05-07T23:37:22.602Z,59.70
2019-05-07T23:39:54.022Z,59.40
2019-05-07T23:42:27.248Z,59.50
2019-05-07T23:44:56.382Z,60.70
2019-05-07T23:47:25.474Z,60.40
2019-05-07T23:49:54.592Z,60.00
2019-05-07T23:52:23.680Z,60.00
2019-05-07T23:54:52.775Z,60.20
2019-05-07T23:57:23.113Z,60.00
2019-05-07T23:59:54.581Z,60.00
